createdAt,value
2023-04-27T00:00:41.466Z,18.55
2023-04-27T00:03:08.520Z,20.41
2023-04-27T00:05:35.972Z,21.12
2023-04-27T00:08:02.899Z,21.47
2023-04-27T00:10:29.690Z,21.67
2023-04-27T00:12:56.474Z,21.81
2023-04-27T00:15:23.247Z,22.03
2023-04-27T00:17:50.136Z,21.95
2023-04-27T00:20:16.902Z,22.04
2023-04-27T00:22:43.714Z,22.27
2023-04-27T00:25:10.609Z,22.24
2023-04-27T00:27:37.354Z,22.36
2023-04-27T00:30:04.312Z,22.47
2023-04-27T00:32:31.120Z,22.50
2023-04-27T00:34:57.936Z,22.50
2023-04-27T00:37:24.792Z,22.62
2023-04-27T00:39:51.554Z,22.54
2023-04-27T00:42:19.596Z,22.64
2023-04-27T00:44:46.388Z,22.75
2023-04-27T00:47:13.144Z,22.75
2023-04-27T00:49:39.885Z,22.78
2023-04-27T00:52:07.362Z,22.94
2023-04-27T00:54:34.111Z,23.00
2023-04-27T00:57:00.840Z,22.97
2023-04-27T00:59:27.582Z,22.28
2023-04-27T01:01:54.959Z,19.46
2023-04-27T01:04:21.828Z,18.03
2023-04-27T01:06:48.840Z,19.95
2023-04-27T01:09:19.035Z,20.96
2023-04-27T01:11:45.790Z,21.42
2023-04-27T01:14:12.598Z,21.64
2023-04-27T01:16:39.480Z,21.76
2023-04-27T01:19:06.288Z,21.83
2023-04-27T01:21:33.101Z,22.03
2023-04-27T01:23:59.850Z,22.24
2023-04-27T01:26:26.822Z,22.21
2023-04-27T01:28:53.608Z,22.32
2023-04-27T01:31:20.518Z,22.39
2023-04-27T01:33:47.326Z,22.54
2023-04-27T01:36:14.142Z,22.42
2023-04-27T01:38:41.091Z,22.69
2023-04-27T01:41:09.185Z,22.73
2023-04-27T01:43:37.030Z,22.62
2023-04-27T01:46:03.811Z,22.61
2023-04-27T01:48:30.570Z,22.72
2023-04-27T01:50:57.339Z,22.67
2023-04-27T01:53:24.092Z,22.90
2023-04-27T01:55:51.086Z,22.89
2023-04-27T01:58:17.843Z,22.21
2023-04-27T02:00:44.608Z,19.22
2023-04-27T02:03:11.557Z,17.83
2023-04-27T02:05:38.431Z,19.76
2023-04-27T02:08:05.170Z,20.85
2023-04-27T02:10:31.950Z,21.21
2023-04-27T02:12:58.730Z,21.47
2023-04-27T02:15:25.617Z,21.73
2023-04-27T02:17:52.415Z,21.81
2023-04-27T02:20:19.208Z,21.89
2023-04-27T02:22:45.949Z,22.16
2023-04-27T02:25:12.703Z,22.16
2023-04-27T02:27:39.544Z,22.20
2023-04-27T02:30:07.078Z,22.27
2023-04-27T02:32:34.255Z,22.32
2023-04-27T02:35:01.342Z,22.44
2023-04-27T02:37:28.099Z,22.47
2023-04-27T02:39:54.855Z,22.61
2023-04-27T02:42:21.624Z,22.61
2023-04-27T02:44:48.413Z,22.72
2023-04-27T02:47:15.161Z,22.72
2023-04-27T02:49:42.083Z,22.72
2023-04-27T02:52:08.941Z,22.76
2023-04-27T02:54:35.827Z,22.86
2023-04-27T02:57:02.593Z,22.92
2023-04-27T02:59:29.333Z,20.39
2023-04-27T03:01:56.106Z,18.54
2023-04-27T03:04:23.584Z,19.02
2023-04-27T03:06:50.874Z,20.46
2023-04-27T03:09:17.639Z,21.19
2023-04-27T03:11:44.405Z,21.44
2023-04-27T03:14:12.648Z,21.79
2023-04-27T03:16:39.529Z,21.76
2023-04-27T03:19:07.125Z,22.01
2023-04-27T03:21:33.907Z,22.01
2023-04-27T03:24:00.901Z,22.11
2023-04-27T03:26:27.660Z,22.10
2023-04-27T03:28:54.419Z,22.21
2023-04-27T03:31:21.594Z,22.28
2023-04-27T03:33:48.381Z,22.34
2023-04-27T03:36:15.288Z,22.44
2023-04-27T03:38:42.035Z,22.58
2023-04-27T03:41:08.825Z,22.60
2023-04-27T03:43:36.130Z,22.59
2023-04-27T03:46:02.961Z,22.71
2023-04-27T03:48:29.851Z,22.74
2023-04-27T03:50:56.629Z,22.77
2023-04-27T03:53:23.397Z,22.83
2023-04-27T03:55:50.215Z,22.87
2023-04-27T03:58:17.788Z,22.88
2023-04-27T04:00:44.606Z,22.90
2023-04-27T04:03:11.587Z,22.94
2023-04-27T04:05:38.530Z,22.62
2023-04-27T04:08:05.268Z,19.73
2023-04-27T04:10:32.066Z,18.40
2023-04-27T04:12:58.925Z,19.97
2023-04-27T04:15:25.915Z,20.92
2023-04-27T04:17:52.829Z,21.46
2023-04-27T04:20:19.706Z,21.69
2023-04-27T04:22:46.515Z,21.73
2023-04-27T04:25:13.876Z,21.90
2023-04-27T04:27:40.900Z,22.06
2023-04-27T04:30:07.707Z,22.17
2023-04-27T04:32:37.541Z,22.30
2023-04-27T04:35:05.172Z,22.23
2023-04-27T04:37:31.904Z,22.29
2023-04-27T04:39:58.661Z,22.49
2023-04-27T04:42:25.406Z,22.50
2023-04-27T04:44:52.390Z,22.55
2023-04-27T04:47:19.193Z,22.55
2023-04-27T04:49:46.138Z,22.63
2023-04-27T04:52:12.900Z,22.76
2023-04-27T04:54:39.853Z,21.56
2023-04-27T04:57:07.551Z,19.12
2023-04-27T04:59:34.949Z,17.96
2023-04-27T05:02:01.884Z,19.70
2023-04-27T05:04:28.827Z,20.76
2023-04-27T05:06:55.878Z,21.10
2023-04-27T05:09:22.673Z,21.34
2023-04-27T05:11:49.405Z,21.58
2023-04-27T05:14:16.190Z,21.71
2023-04-27T05:16:43.058Z,21.87
2023-04-27T05:19:09.906Z,21.90
2023-04-27T05:21:36.710Z,22.06
2023-04-27T05:24:03.986Z,22.11
2023-04-27T05:26:30.969Z,22.16
2023-04-27T05:28:57.732Z,22.25
2023-04-27T05:31:24.616Z,22.26
2023-04-27T05:33:51.418Z,22.29
2023-04-27T05:36:18.197Z,22.51
2023-04-27T05:38:45.010Z,22.55
2023-04-27T05:41:11.762Z,22.50
2023-04-27T05:43:38.704Z,22.62
2023-04-27T05:46:05.616Z,22.71
2023-04-27T05:48:32.446Z,22.86
2023-04-27T05:50:59.251Z,20.38
2023-04-27T05:53:26.246Z,18.52
2023-04-27T05:55:53.329Z,18.75
2023-04-27T05:58:20.128Z,20.25
2023-04-27T06:00:46.948Z,20.97
2023-04-27T06:03:13.964Z,21.35
2023-04-27T06:05:40.848Z,21.42
2023-04-27T06:08:07.778Z,21.58
2023-04-27T06:10:34.525Z,21.70
2023-04-27T06:13:01.330Z,21.85
2023-04-27T06:15:28.162Z,22.01
2023-04-27T06:17:55.069Z,22.13
2023-04-27T06:20:21.952Z,22.14
2023-04-27T06:22:48.823Z,22.30
2023-04-27T06:25:15.586Z,22.35
2023-04-27T06:27:42.438Z,22.36
2023-04-27T06:30:09.196Z,22.42
2023-04-27T06:32:36.035Z,22.51
2023-04-27T06:35:02.823Z,22.56
2023-04-27T06:37:30.023Z,22.63
2023-04-27T06:39:56.814Z,22.63
2023-04-27T06:42:23.658Z,22.66
2023-04-27T06:44:50.496Z,21.86
2023-04-27T06:47:17.312Z,19.51
2023-04-27T06:49:44.093Z,18.41
2023-04-27T06:52:11.121Z,19.63
2023-04-27T06:54:37.947Z,20.58
2023-04-27T06:57:04.703Z,21.10
2023-04-27T06:59:31.494Z,21.39
2023-04-27T07:01:58.404Z,21.62
2023-04-27T07:04:25.510Z,21.82
2023-04-27T07:06:52.359Z,21.87
2023-04-27T07:09:26.952Z,22.01
2023-04-27T07:11:54.436Z,22.11
2023-04-27T07:14:21.421Z,22.23
2023-04-27T07:16:48.242Z,22.21
2023-04-27T07:19:15.225Z,22.30
2023-04-27T07:21:42.489Z,22.31
2023-04-27T07:24:09.240Z,22.40
2023-04-27T07:26:36.857Z,22.49
2023-04-27T07:29:11.235Z,22.64
2023-04-27T07:31:46.455Z,22.62
2023-04-27T07:34:13.351Z,22.61
2023-04-27T07:36:40.211Z,21.72
2023-04-27T07:39:07.992Z,19.40
2023-04-27T07:41:35.419Z,18.56
2023-04-27T07:44:02.499Z,19.52
2023-04-27T07:46:31.581Z,20.42
2023-04-27T07:48:59.702Z,21.06
2023-04-27T07:51:28.429Z,21.36
2023-04-27T07:53:55.581Z,21.68
2023-04-27T07:56:22.363Z,21.71
2023-04-27T07:58:49.109Z,21.83
2023-04-27T08:01:16.903Z,21.90
2023-04-27T08:03:44.555Z,22.06
2023-04-27T08:06:11.616Z,22.15
2023-04-27T08:08:38.933Z,22.36
2023-04-27T08:11:05.792Z,22.31
2023-04-27T08:13:32.561Z,22.39
2023-04-27T08:15:59.378Z,22.51
2023-04-27T08:18:26.143Z,22.51
2023-04-27T08:20:52.907Z,22.53
2023-04-27T08:23:19.704Z,22.64
2023-04-27T08:25:46.458Z,22.57
2023-04-27T08:28:13.209Z,22.50
2023-04-27T08:30:39.991Z,20.17
2023-04-27T08:33:06.761Z,18.66
2023-04-27T08:35:33.532Z,19.18
2023-04-27T08:38:00.512Z,20.38
2023-04-27T08:40:27.322Z,20.91
2023-04-27T08:42:54.154Z,21.34
2023-04-27T08:45:20.954Z,21.54
2023-04-27T08:47:47.795Z,21.74
2023-04-27T08:50:14.567Z,21.75
2023-04-27T08:52:41.398Z,21.99
2023-04-27T08:55:08.443Z,22.02
2023-04-27T08:57:35.648Z,22.19
2023-04-27T09:00:11.422Z,22.25
2023-04-27T09:02:38.332Z,22.21
2023-04-27T09:05:05.429Z,22.37
2023-04-27T09:07:32.509Z,22.42
2023-04-27T09:09:59.263Z,22.60
2023-04-27T09:12:26.077Z,22.60
2023-04-27T09:14:52.850Z,22.64
2023-04-27T09:17:19.584Z,22.79
2023-04-27T09:19:46.338Z,22.58
2023-04-27T09:22:14.726Z,20.30
2023-04-27T09:24:41.477Z,19.02
2023-04-27T09:27:08.794Z,19.47
2023-04-27T09:29:35.832Z,20.28
2023-04-27T09:32:03.781Z,20.99
2023-04-27T09:34:30.797Z,21.29
2023-04-27T09:36:57.664Z,21.52
2023-04-27T09:39:24.406Z,21.74
2023-04-27T09:41:51.171Z,21.90
2023-04-27T09:44:18.056Z,22.02
2023-04-27T09:46:45.516Z,22.09
2023-04-27T09:49:12.454Z,22.20
2023-04-27T09:51:39.443Z,22.24
2023-04-27T09:54:06.309Z,22.25
2023-04-27T09:56:33.124Z,22.49
2023-04-27T09:58:59.992Z,22.46
2023-04-27T10:01:26.789Z,22.58
2023-04-27T10:03:53.702Z,22.55
2023-04-27T10:06:20.646Z,22.69
2023-04-27T10:08:47.414Z,22.61
2023-04-27T10:11:15.368Z,20.09
2023-04-27T10:13:42.147Z,18.88
2023-04-27T10:16:08.905Z,19.38
2023-04-27T10:18:35.648Z,20.28
2023-04-27T10:21:02.423Z,20.99
2023-04-27T10:23:29.365Z,21.23
2023-04-27T10:25:57.118Z,21.49
2023-04-27T10:28:24.004Z,21.76
2023-04-27T10:30:51.734Z,21.87
2023-04-27T10:33:18.547Z,21.98
2023-04-27T10:35:45.804Z,22.02
2023-04-27T10:38:12.588Z,22.30
2023-04-27T10:40:39.464Z,22.24
2023-04-27T10:43:06.469Z,22.29
2023-04-27T10:45:33.228Z,22.35
2023-04-27T10:48:00.062Z,22.45
2023-04-27T10:50:27.015Z,22.54
2023-04-27T10:52:53.857Z,22.55
2023-04-27T10:55:20.795Z,22.58
2023-04-27T10:57:48.047Z,22.88
2023-04-27T11:00:16.460Z,20.68
2023-04-27T11:02:43.452Z,19.09
2023-04-27T11:05:10.438Z,19.32
2023-04-27T11:07:37.273Z,20.25
2023-04-27T11:10:04.254Z,21.08
2023-04-27T11:12:31.086Z,21.39
2023-04-27T11:14:58.306Z,21.69
2023-04-27T11:17:25.458Z,21.80
2023-04-27T11:19:52.255Z,21.93
2023-04-27T11:22:19.036Z,22.01
2023-04-27T11:24:45.824Z,22.19
2023-04-27T11:27:12.992Z,22.17
2023-04-27T11:29:39.969Z,22.33
2023-04-27T11:32:07.030Z,22.43
2023-04-27T11:34:39.026Z,22.44
2023-04-27T11:39:36.468Z,22.66
2023-04-27T11:42:03.681Z,22.67
2023-04-27T11:44:30.519Z,22.78
2023-04-27T11:47:10.502Z,20.12
2023-04-27T11:49:37.546Z,18.96
2023-04-27T11:52:04.314Z,19.48
2023-04-27T11:54:31.232Z,20.51
2023-04-27T11:56:57.965Z,21.14
2023-04-27T11:59:25.544Z,21.47
2023-04-27T12:01:52.388Z,21.68
2023-04-27T12:04:19.634Z,21.83
2023-04-27T12:06:46.905Z,21.96
2023-04-27T12:09:13.700Z,22.09
2023-04-27T12:11:40.998Z,22.18
2023-04-27T12:14:07.954Z,22.16
2023-04-27T12:16:34.765Z,22.29
2023-04-27T12:19:01.836Z,22.44
2023-04-27T12:21:28.785Z,22.45
2023-04-27T12:23:55.726Z,22.62
2023-04-27T12:26:22.486Z,22.63
2023-04-27T12:28:49.260Z,22.72
2023-04-27T12:31:26.107Z,21.75
2023-04-27T12:33:54.376Z,19.32
2023-04-27T12:36:21.225Z,18.92
2023-04-27T12:38:48.121Z,19.94
2023-04-27T12:41:14.946Z,20.96
2023-04-27T12:43:43.426Z,21.36
2023-04-27T12:46:10.379Z,21.54
2023-04-27T12:48:37.187Z,21.79
2023-04-27T12:51:03.955Z,21.84
2023-04-27T12:53:30.747Z,21.97
2023-04-27T12:55:57.533Z,22.06
2023-04-27T12:58:24.285Z,22.26
2023-04-27T13:00:51.043Z,22.30
2023-04-27T13:03:18.025Z,22.44
2023-04-27T13:05:45.505Z,22.42
2023-04-27T13:08:12.307Z,22.63
2023-04-27T13:10:40.406Z,22.60
2023-04-27T13:13:07.704Z,22.67
2023-04-27T13:15:34.482Z,21.93
2023-04-27T13:18:05.080Z,19.86
2023-04-27T13:20:31.882Z,18.58
2023-04-27T13:22:58.638Z,19.81
2023-04-27T13:25:25.405Z,20.77
2023-04-27T13:27:52.206Z,21.29
2023-04-27T13:30:18.981Z,21.48
2023-04-27T13:32:45.920Z,21.77
2023-04-27T13:35:12.884Z,21.80
2023-04-27T13:37:42.080Z,21.92
2023-04-27T13:40:10.825Z,22.19
2023-04-27T13:42:37.613Z,22.18
2023-04-27T13:45:04.927Z,22.28
2023-04-27T13:47:37.085Z,22.36
2023-04-27T13:50:04.235Z,22.38
2023-04-27T13:52:31.092Z,22.48
2023-04-27T13:54:57.892Z,22.62
2023-04-27T13:57:24.655Z,22.74
2023-04-27T13:59:51.479Z,22.63
2023-04-27T14:02:18.316Z,20.47
2023-04-27T14:04:45.131Z,18.98
2023-04-27T14:07:12.162Z,19.17
2023-04-27T14:09:38.996Z,20.38
2023-04-27T14:12:05.820Z,20.98
2023-04-27T14:14:32.661Z,21.36
2023-04-27T14:16:59.492Z,21.59
2023-04-27T14:19:27.281Z,21.79
2023-04-27T14:21:55.366Z,21.89
2023-04-27T14:24:22.129Z,22.09
2023-04-27T14:26:49.425Z,22.14
2023-04-27T14:29:16.482Z,22.31
2023-04-27T14:31:43.449Z,22.36
2023-04-27T14:34:10.796Z,22.31
2023-04-27T14:36:37.619Z,22.44
2023-04-27T14:39:05.555Z,22.51
2023-04-27T14:41:32.344Z,22.60
2023-04-27T14:43:59.286Z,22.62
2023-04-27T14:46:26.110Z,22.76
2023-04-27T14:48:52.916Z,20.47
2023-04-27T14:51:19.756Z,18.98
2023-04-27T14:53:46.531Z,18.88
2023-04-27T14:56:13.303Z,20.30
2023-04-27T14:58:40.776Z,21.14
2023-04-27T15:01:07.592Z,21.45
2023-04-27T15:03:34.691Z,21.56
2023-04-27T15:06:01.780Z,21.81
2023-04-27T15:08:29.404Z,22.00
2023-04-27T15:11:00.551Z,22.06
2023-04-27T15:13:27.494Z,22.08
2023-04-27T15:15:54.695Z,22.21
2023-04-27T15:18:21.573Z,22.30
2023-04-27T15:20:48.534Z,22.43
2023-04-27T15:23:18.066Z,22.47
2023-04-27T15:25:44.798Z,22.43
2023-04-27T15:28:11.583Z,22.60
2023-04-27T15:30:38.344Z,22.62
2023-04-27T15:33:05.290Z,22.13
2023-04-27T15:35:32.521Z,20.00
2023-04-27T15:37:59.383Z,18.53
2023-04-27T15:40:26.123Z,19.68
2023-04-27T15:42:52.901Z,20.77
2023-04-27T15:45:19.673Z,21.15
2023-04-27T15:47:46.694Z,21.48
2023-04-27T15:50:13.542Z,21.63
2023-04-27T15:52:40.292Z,21.88
2023-04-27T15:55:08.420Z,21.93
2023-04-27T15:57:35.514Z,22.00
2023-04-27T16:00:02.275Z,22.15
2023-04-27T16:02:29.085Z,22.19
2023-04-27T16:04:56.431Z,22.24
2023-04-27T16:07:23.276Z,22.40
2023-04-27T16:09:50.076Z,22.43
2023-04-27T16:12:16.847Z,22.56
2023-04-27T16:14:43.720Z,22.60
2023-04-27T16:17:10.642Z,22.69
2023-04-27T16:19:37.413Z,20.47
2023-04-27T16:22:04.176Z,19.80
2023-04-27T16:24:31.303Z,19.95
2023-04-27T16:26:58.102Z,20.90
2023-04-27T16:29:24.866Z,21.38
2023-04-27T16:31:51.642Z,21.63
2023-04-27T16:34:18.498Z,21.83
2023-04-27T16:36:47.375Z,21.96
2023-04-27T16:39:14.458Z,22.06
2023-04-27T16:41:41.470Z,22.12
2023-04-27T16:44:08.223Z,22.22
2023-04-27T16:46:35.103Z,22.30
2023-04-27T16:49:02.089Z,22.42
2023-04-27T16:51:28.914Z,22.53
2023-04-27T16:53:55.676Z,22.57
2023-04-27T16:56:22.431Z,22.61
2023-04-27T16:58:49.181Z,21.47
2023-04-27T17:01:15.986Z,19.55
2023-04-27T17:03:42.979Z,19.14
2023-04-27T17:06:09.858Z,20.52
2023-04-27T17:08:36.623Z,21.15
2023-04-27T17:11:03.382Z,21.69
2023-04-27T17:13:31.599Z,21.78
2023-04-27T17:15:58.547Z,21.87
2023-04-27T17:18:25.652Z,22.06
2023-04-27T17:20:53.116Z,22.17
2023-04-27T17:23:20.021Z,22.26
2023-04-27T17:25:46.918Z,22.30
2023-04-27T17:28:13.660Z,22.40
2023-04-27T17:30:41.757Z,22.48
2023-04-27T17:33:09.846Z,22.58
2023-04-27T17:35:36.651Z,22.54
2023-04-27T17:38:03.481Z,22.73
2023-04-27T17:40:30.383Z,20.56
2023-04-27T17:42:57.752Z,18.99
2023-04-27T17:45:26.330Z,19.09
2023-04-27T17:47:53.145Z,20.34
2023-04-27T17:50:19.880Z,21.03
2023-04-27T17:52:49.347Z,21.40
2023-04-27T17:55:16.423Z,21.72
2023-04-27T17:57:43.245Z,21.79
2023-04-27T18:00:13.073Z,21.86
2023-04-27T18:02:40.177Z,21.97
2023-04-27T18:05:07.025Z,22.05
2023-04-27T18:07:33.784Z,22.08
2023-04-27T18:10:00.818Z,22.38
2023-04-27T18:12:27.603Z,22.46
2023-04-27T18:14:54.403Z,22.63
2023-04-27T18:17:21.442Z,22.49
2023-04-27T18:19:55.292Z,22.63
2023-04-27T18:22:27.959Z,22.66
2023-04-27T18:24:54.729Z,22.83
2023-04-27T18:27:21.476Z,20.48
2023-04-27T18:29:48.287Z,18.60
2023-04-27T18:32:15.960Z,18.22
2023-04-27T18:34:43.435Z,20.04
2023-04-27T18:37:10.448Z,20.89
2023-04-27T18:39:37.202Z,21.28
2023-04-27T18:42:03.975Z,21.47
2023-04-27T18:44:30.885Z,21.56
2023-04-27T18:46:57.631Z,21.83
2023-04-27T18:49:24.412Z,21.98
2023-04-27T18:51:51.247Z,22.06
2023-04-27T18:54:17.977Z,22.18
2023-04-27T18:56:44.750Z,22.08
2023-04-27T18:59:11.530Z,22.40
2023-04-27T19:01:39.716Z,22.31
2023-04-27T19:04:07.100Z,22.51
2023-04-27T19:06:34.046Z,22.46
2023-04-27T19:09:00.834Z,22.46
2023-04-27T19:11:28.647Z,22.64
2023-04-27T19:13:55.410Z,22.59
2023-04-27T19:16:22.193Z,22.66
2023-04-27T19:18:49.035Z,22.75
2023-04-27T19:21:15.945Z,20.05
2023-04-27T19:23:44.951Z,18.42
2023-04-27T19:26:13.914Z,18.57
2023-04-27T19:28:41.191Z,20.26
2023-04-27T19:31:08.257Z,20.90
2023-04-27T19:33:35.166Z,21.15
2023-04-27T19:36:01.920Z,21.33
2023-04-27T19:38:29.380Z,21.69
2023-04-27T19:40:56.128Z,21.73
2023-04-27T19:43:22.942Z,21.91
2023-04-27T19:45:50.850Z,22.03
2023-04-27T19:48:17.686Z,22.07
2023-04-27T19:50:44.475Z,22.21
2023-04-27T19:53:11.215Z,22.21
2023-04-27T19:55:39.003Z,22.26
2023-04-27T19:58:05.918Z,22.46
2023-04-27T20:00:33.204Z,22.54
2023-04-27T20:03:00.089Z,22.51
2023-04-27T20:05:27.151Z,22.59
2023-04-27T20:07:54.011Z,22.62
2023-04-27T20:10:21.309Z,22.40
2023-04-27T20:12:56.250Z,19.64
2023-04-27T20:15:23.749Z,17.60
2023-04-27T20:17:50.572Z,19.17
2023-04-27T20:20:18.173Z,20.51
2023-04-27T20:22:45.404Z,20.93
2023-04-27T20:25:13.944Z,21.39
2023-04-27T20:27:40.862Z,21.52
2023-04-27T20:30:08.101Z,21.69
2023-04-27T20:32:35.066Z,21.83
2023-04-27T20:35:02.452Z,21.94
2023-04-27T20:37:29.348Z,21.98
2023-04-27T20:39:56.139Z,22.11
2023-04-27T20:42:22.880Z,22.19
2023-04-27T20:44:50.370Z,22.22
2023-04-27T20:47:17.142Z,22.31
2023-04-27T20:49:43.987Z,22.36
2023-04-27T20:52:10.992Z,22.44
2023-04-27T20:54:37.852Z,22.50
2023-04-27T20:57:08.443Z,22.59
2023-04-27T20:59:35.240Z,22.77
2023-04-27T21:02:02.077Z,22.64
2023-04-27T21:04:28.920Z,22.74
2023-04-27T21:06:55.791Z,19.54
2023-04-27T21:09:22.623Z,18.41
2023-04-27T21:11:49.390Z,18.80
2023-04-27T21:14:16.317Z,20.30
2023-04-27T21:16:43.274Z,20.87
2023-04-27T21:19:12.887Z,21.33
2023-04-27T21:21:39.798Z,21.44
2023-04-27T21:24:19.287Z,21.66
2023-04-27T21:26:46.275Z,21.82
2023-04-27T21:29:13.172Z,21.85
2023-04-27T21:31:40.157Z,21.98
2023-04-27T21:34:06.968Z,22.14
2023-04-27T21:36:33.817Z,22.17
2023-04-27T21:39:00.561Z,22.31
2023-04-27T21:41:27.364Z,22.37
2023-04-27T21:43:54.195Z,22.37
2023-04-27T21:46:21.442Z,22.50
2023-04-27T21:48:48.226Z,22.46
2023-04-27T21:51:14.991Z,22.68
2023-04-27T21:53:41.775Z,22.59
2023-04-27T21:56:08.514Z,22.65
2023-04-27T21:58:35.425Z,20.84
2023-04-27T22:01:02.231Z,18.69
2023-04-27T22:03:29.123Z,18.31
2023-04-27T22:05:57.432Z,20.10
2023-04-27T22:08:24.325Z,20.92
2023-04-27T22:10:51.082Z,21.29
2023-04-27T22:13:19.377Z,21.49
2023-04-27T22:15:46.694Z,21.61
2023-04-27T22:18:14.571Z,21.78
2023-04-27T22:20:41.582Z,21.83
2023-04-27T22:23:09.207Z,22.08
2023-04-27T22:25:36.039Z,22.16
2023-04-27T22:28:02.838Z,22.07
2023-04-27T22:30:29.598Z,22.17
2023-04-27T22:32:56.652Z,22.31
2023-04-27T22:35:27.131Z,22.40
2023-04-27T22:37:54.167Z,22.55
2023-04-27T22:40:21.014Z,22.44
2023-04-27T22:42:47.823Z,22.59
2023-04-27T22:45:14.570Z,22.50
2023-04-27T22:47:41.506Z,22.71
2023-04-27T22:50:08.483Z,21.76
2023-04-27T22:52:37.069Z,19.16
2023-04-27T22:55:04.176Z,18.03
2023-04-27T22:57:30.953Z,19.64
2023-04-27T22:59:57.754Z,20.76
2023-04-27T23:02:24.633Z,21.17
2023-04-27T23:04:51.532Z,21.37
2023-04-27T23:07:18.357Z,21.48
2023-04-27T23:09:45.605Z,21.63
2023-04-27T23:12:12.439Z,21.77
2023-04-27T23:14:41.616Z,21.93
2023-04-27T23:17:08.431Z,22.03
2023-04-27T23:19:35.256Z,22.14
2023-04-27T23:22:01.982Z,22.19
2023-04-27T23:24:28.730Z,22.16
2023-04-27T23:26:55.493Z,22.25
2023-04-27T23:29:22.277Z,22.31
2023-04-27T23:31:49.044Z,22.38
2023-04-27T23:34:16.197Z,22.46
2023-04-27T23:36:43.210Z,22.50
2023-04-27T23:39:09.982Z,22.47
2023-04-27T23:41:37.117Z,22.68
2023-04-27T23:44:03.893Z,22.69
2023-04-27T23:46:30.645Z,20.17
2023-04-27T23:48:57.530Z,18.27
2023-04-27T23:51:24.406Z,18.43
2023-04-27T23:53:51.135Z,20.26
2023-04-27T23:56:18.025Z,20.90
2023-04-27T23:58:44.809Z,21.22
